Vineyard Haven, Massachusetts
Current Conditions -  °F | °C
As of 7:53 PM on Saturday 20 Dec 2014 (Local Time) from KMVY Reporting Station
Light Rain Light Rain  
Wind Chill: 30°   Ceiling: 2300
Heat Index: 36°   Visibility: 8mi
Dew Point: 34°   Wind: 7mph
Humidity: 93%   Direction: 350°N
Pressure: 30.25"   Gusts: NA
Location:  41.46°N, 70.61°W
Report Text: KMVY 210053Z AUTO 35006KT 8SM -RA FEW016 BKN023 OVC031 02/01 A3025 RMK AO2 RAB2356 SLP243 P0000 T00220011
Loading
Personal Weather Stations






























Interactive Weather Map New forecast layout! Learn more

10-Day Weather Forecast

Advertisements
Track Severe Weather on mobile